createdAt,value
2022-11-30T00:01:22.117Z,92.57
2022-11-30T00:03:49.064Z,90.03
2022-11-30T00:06:22.697Z,90.13
2022-11-30T00:08:54.053Z,91.75
2022-11-30T00:11:22.513Z,89.35
2022-11-30T00:13:49.108Z,88.22
2022-11-30T00:16:15.834Z,91.90
2022-11-30T00:18:42.287Z,96.05
2022-11-30T00:21:11.846Z,101.70
2022-11-30T00:23:40.225Z,88.20
2022-11-30T00:26:09.552Z,101.35
2022-11-30T00:28:37.536Z,93.07
2022-11-30T00:31:10.819Z,92.10
2022-11-30T00:33:38.267Z,92.77
2022-11-30T00:36:12.142Z,94.22
2022-11-30T00:38:38.992Z,100.80
2022-11-30T00:41:06.116Z,92.30
2022-11-30T00:43:32.533Z,90.50
2022-11-30T00:45:59.391Z,102.88
2022-11-30T00:48:25.810Z,98.80
2022-11-30T00:50:52.665Z,92.25
2022-11-30T00:53:19.268Z,93.68
2022-11-30T00:55:48.017Z,98.93
2022-11-30T00:58:14.902Z,96.40
2022-11-30T01:00:41.584Z,105.32
2022-11-30T01:03:08.226Z,92.95
2022-11-30T01:05:34.920Z,109.80
2022-11-30T01:08:02.350Z,102.03
2022-11-30T01:10:29.055Z,93.95
2022-11-30T01:12:55.817Z,102.15
2022-11-30T01:15:22.664Z,91.35
2022-11-30T01:17:49.046Z,108.25
2022-11-30T01:20:15.481Z,101.65
2022-11-30T01:22:41.932Z,103.35
2022-11-30T01:25:08.879Z,105.40
2022-11-30T01:27:35.192Z,117.55
2022-11-30T01:30:01.689Z,108.90
2022-11-30T01:32:28.141Z,101.65
2022-11-30T01:34:54.614Z,98.90
2022-11-30T01:37:20.956Z,96.22
2022-11-30T01:39:47.303Z,104.53
2022-11-30T01:42:16.847Z,115.35
2022-11-30T01:44:55.122Z,101.97
2022-11-30T01:47:27.977Z,108.28
2022-11-30T01:50:04.276Z,101.93
2022-11-30T01:52:41.183Z,90.10
2022-11-30T01:55:22.147Z,96.95
2022-11-30T01:57:56.116Z,102.28
2022-11-30T02:00:23.816Z,97.05
2022-11-30T02:02:58.744Z,104.10
2022-11-30T02:05:26.679Z,96.82
2022-11-30T02:07:54.041Z,107.80
2022-11-30T02:10:28.091Z,92.93
2022-11-30T02:13:15.884Z,98.40
2022-11-30T02:16:01.033Z,97.35
2022-11-30T02:18:38.704Z,91.38
2022-11-30T02:21:23.532Z,95.88
2022-11-30T02:24:11.810Z,89.65
2022-11-30T02:27:02.945Z,88.78
2022-11-30T02:30:05.437Z,94.10
2022-11-30T02:32:38.115Z,88.78
2022-11-30T02:35:07.061Z,83.03
2022-11-30T02:37:35.200Z,87.07
2022-11-30T02:40:01.592Z,84.70
2022-11-30T02:42:27.918Z,90.90
2022-11-30T02:44:54.678Z,85.18
2022-11-30T02:47:40.398Z,82.30
2022-11-30T02:50:18.654Z,94.05
2022-11-30T02:52:45.872Z,90.45
2022-11-30T02:55:16.982Z,83.38
2022-11-30T02:57:43.452Z,76.57
2022-11-30T03:00:12.231Z,88.43
2022-11-30T03:02:39.927Z,89.28
2022-11-30T03:05:07.202Z,99.40
2022-11-30T03:07:33.588Z,98.43
2022-11-30T03:10:00.431Z,90.47
2022-11-30T03:12:26.869Z,88.00
2022-11-30T03:14:53.466Z,90.78
2022-11-30T03:17:19.830Z,79.15
2022-11-30T03:19:46.150Z,88.57
2022-11-30T03:22:12.558Z,87.63
2022-11-30T03:24:38.963Z,89.05
2022-11-30T03:27:05.372Z,87.22
2022-11-30T03:29:31.699Z,88.88
2022-11-30T03:31:58.114Z,82.25
2022-11-30T03:34:26.468Z,82.43
2022-11-30T03:36:53.276Z,89.53
2022-11-30T03:39:19.688Z,79.90
2022-11-30T03:41:46.145Z,84.00
2022-11-30T03:44:12.657Z,89.00
2022-11-30T03:46:39.297Z,81.30
2022-11-30T03:49:05.826Z,80.20
2022-11-30T03:51:32.226Z,96.07
2022-11-30T03:53:58.857Z,86.57
2022-11-30T03:56:25.507Z,89.85
2022-11-30T03:58:51.894Z,83.68
2022-11-30T04:01:23.648Z,82.82
2022-11-30T04:03:51.774Z,82.28
2022-11-30T04:06:19.522Z,80.10
2022-11-30T04:08:46.392Z,83.30
2022-11-30T04:11:14.193Z,82.50
2022-11-30T04:13:41.346Z,76.28
2022-11-30T04:16:08.048Z,77.05
2022-11-30T04:18:36.391Z,74.72
2022-11-30T04:21:03.126Z,80.85
2022-11-30T04:23:31.985Z,76.30
2022-11-30T04:25:58.873Z,73.53
2022-11-30T04:28:25.378Z,75.05
2022-11-30T04:30:53.827Z,77.75
2022-11-30T04:33:20.368Z,75.00
2022-11-30T04:35:50.138Z,76.80
2022-11-30T04:38:16.541Z,74.90
2022-11-30T04:40:44.014Z,74.75
2022-11-30T04:43:11.878Z,75.40
2022-11-30T04:45:38.936Z,75.30
2022-11-30T04:48:06.513Z,71.47
2022-11-30T04:50:33.379Z,72.88
2022-11-30T04:52:59.837Z,69.97
2022-11-30T04:55:26.783Z,75.32
2022-11-30T04:57:53.631Z,71.93
2022-11-30T05:00:20.344Z,75.57
2022-11-30T05:02:52.420Z,72.80
2022-11-30T05:05:19.624Z,73.47
2022-11-30T05:07:49.708Z,74.72
2022-11-30T05:10:16.506Z,71.13
2022-11-30T05:12:43.031Z,76.82
2022-11-30T05:15:09.973Z,71.20
2022-11-30T05:17:36.404Z,74.80
2022-11-30T05:20:03.198Z,75.88
2022-11-30T05:22:29.610Z,71.10
2022-11-30T05:24:55.966Z,76.13
2022-11-30T05:27:22.813Z,70.90
2022-11-30T05:29:49.343Z,69.95
2022-11-30T05:32:15.712Z,69.68
2022-11-30T05:34:50.631Z,69.20
2022-11-30T05:37:18.169Z,70.88
2022-11-30T05:39:44.538Z,73.32
2022-11-30T05:42:13.797Z,77.25
2022-11-30T05:44:40.184Z,78.45
2022-11-30T05:47:06.594Z,72.90
2022-11-30T05:49:33.077Z,78.35
2022-11-30T05:51:59.571Z,74.97
2022-11-30T05:54:25.995Z,79.47
2022-11-30T05:56:55.026Z,75.55
2022-11-30T05:59:22.514Z,76.25
2022-11-30T06:01:49.091Z,77.45
2022-11-30T06:04:15.595Z,78.82
2022-11-30T06:06:41.970Z,74.10
2022-11-30T06:09:08.334Z,77.40
2022-11-30T06:11:34.686Z,78.22
2022-11-30T06:14:00.991Z,77.78
2022-11-30T06:16:27.330Z,78.05
2022-11-30T06:18:53.697Z,75.50
2022-11-30T06:21:24.434Z,76.55
2022-11-30T06:23:52.182Z,75.30
2022-11-30T06:26:18.559Z,73.32
2022-11-30T06:28:48.217Z,72.35
2022-11-30T06:31:15.714Z,69.07
2022-11-30T06:33:42.132Z,68.30
2022-11-30T06:36:09.193Z,64.90
2022-11-30T06:38:35.532Z,62.65
2022-11-30T06:41:07.200Z,62.42
2022-11-30T06:43:35.533Z,60.25
2022-11-30T06:46:03.560Z,56.20
2022-11-30T06:48:30.146Z,56.03
2022-11-30T06:50:56.595Z,57.97
2022-11-30T06:53:22.953Z,56.72
2022-11-30T06:55:49.391Z,53.28
2022-11-30T06:58:15.872Z,52.63
2022-11-30T07:00:42.805Z,54.38
2022-11-30T07:03:11.302Z,54.55
2022-11-30T07:05:43.959Z,57.70
2022-11-30T07:08:11.566Z,57.42
2022-11-30T07:10:46.232Z,56.20
2022-11-30T07:13:14.704Z,56.22
2022-11-30T07:15:42.133Z,55.72
2022-11-30T07:18:09.450Z,57.70
2022-11-30T07:20:36.936Z,56.28
2022-11-30T07:23:22.594Z,56.05
2022-11-30T07:26:06.216Z,55.55
2022-11-30T07:28:33.951Z,56.23
2022-11-30T07:31:00.288Z,52.95
2022-11-30T07:33:26.693Z,54.88
2022-11-30T07:35:54.012Z,51.97
2022-11-30T07:38:20.338Z,55.72
2022-11-30T07:40:46.645Z,56.08
2022-11-30T07:43:12.975Z,57.35
2022-11-30T07:45:39.320Z,52.83
2022-11-30T07:48:05.763Z,54.13
2022-11-30T07:50:32.110Z,52.65
2022-11-30T07:52:58.581Z,52.42
2022-11-30T07:55:25.042Z,52.33
2022-11-30T07:57:51.392Z,52.33
2022-11-30T08:00:17.859Z,54.67
2022-11-30T08:02:44.200Z,55.40
2022-11-30T08:05:12.118Z,53.28
2022-11-30T08:07:38.633Z,56.50
2022-11-30T08:10:05.859Z,54.10
2022-11-30T08:12:32.434Z,55.65
2022-11-30T08:15:19.215Z,55.55
2022-11-30T08:17:45.520Z,53.95
2022-11-30T08:20:12.106Z,55.45
2022-11-30T08:22:38.482Z,56.38
2022-11-30T08:25:05.482Z,55.85
2022-11-30T08:27:31.793Z,56.78
2022-11-30T08:29:58.110Z,53.47
2022-11-30T08:32:24.417Z,54.42
2022-11-30T08:34:50.933Z,55.78
2022-11-30T08:37:17.423Z,54.85
2022-11-30T08:39:43.808Z,59.80
2022-11-30T08:42:10.124Z,62.08
2022-11-30T08:44:36.482Z,86.82
2022-11-30T08:47:03.035Z,94.30
2022-11-30T08:49:30.853Z,91.32
2022-11-30T08:54:46.205Z,70.63
2022-11-30T08:57:14.273Z,70.93
2022-11-30T08:59:40.683Z,79.30
2022-11-30T09:02:13.266Z,74.65
2022-11-30T09:04:39.682Z,70.75
2022-11-30T09:07:06.013Z,66.40
2022-11-30T09:09:32.625Z,71.28
2022-11-30T09:11:58.985Z,69.93
2022-11-30T09:14:25.378Z,72.25
2022-11-30T09:16:53.418Z,69.80
2022-11-30T09:19:20.253Z,69.90
2022-11-30T09:21:51.568Z,74.53
2022-11-30T09:24:18.999Z,69.68
2022-11-30T09:26:45.338Z,74.57
2022-11-30T09:29:11.755Z,71.63
2022-11-30T09:31:38.088Z,75.22
2022-11-30T09:34:04.530Z,71.25
2022-11-30T09:36:34.577Z,72.40
2022-11-30T09:39:01.073Z,77.15
2022-11-30T09:41:54.352Z,75.45
2022-11-30T09:44:36.478Z,76.53
2022-11-30T09:47:15.080Z,79.32
2022-11-30T09:49:47.171Z,75.38
2022-11-30T09:52:18.613Z,76.18
2022-11-30T09:54:47.853Z,77.45
2022-11-30T09:57:17.402Z,77.00
2022-11-30T09:59:58.469Z,76.40
2022-11-30T10:02:31.071Z,72.72
2022-11-30T10:04:58.093Z,72.43
2022-11-30T10:07:44.959Z,74.07
2022-11-30T10:10:37.659Z,74.30
2022-11-30T10:13:23.266Z,68.78
2022-11-30T10:16:26.667Z,65.95
2022-11-30T10:19:19.633Z,66.45
2022-11-30T10:21:59.192Z,66.28
2022-11-30T10:24:40.519Z,62.03
2022-11-30T10:27:17.074Z,64.22
2022-11-30T10:29:44.204Z,59.03
2022-11-30T10:32:19.006Z,56.30
2022-11-30T10:34:51.769Z,60.05
2022-11-30T10:37:35.916Z,59.70
2022-11-30T10:40:18.022Z,60.75
2022-11-30T10:42:57.805Z,61.20
2022-11-30T10:45:27.180Z,57.95
2022-11-30T10:48:03.385Z,61.65
2022-11-30T10:50:31.318Z,62.90
2022-11-30T10:53:00.103Z,63.50
2022-11-30T10:55:30.086Z,65.63
2022-11-30T10:58:03.901Z,61.85
2022-11-30T11:00:30.236Z,62.80
2022-11-30T11:02:56.722Z,62.75
2022-11-30T11:05:29.693Z,59.45
2022-11-30T11:08:25.328Z,62.83
2022-11-30T11:10:51.753Z,61.00
2022-11-30T11:13:40.521Z,60.78
2022-11-30T11:16:09.978Z,62.28
2022-11-30T11:18:51.189Z,61.88
2022-11-30T11:21:19.694Z,60.63
2022-11-30T11:23:47.617Z,65.53
2022-11-30T11:26:19.855Z,63.58
2022-11-30T11:28:51.791Z,61.30
2022-11-30T11:31:48.974Z,67.25
2022-11-30T11:34:34.363Z,60.22
2022-11-30T11:37:21.945Z,60.83
2022-11-30T11:40:00.523Z,61.67
2022-11-30T11:42:30.648Z,62.25
2022-11-30T11:44:59.533Z,61.03
2022-11-30T11:47:32.662Z,58.85
2022-11-30T11:50:06.693Z,57.53
2022-11-30T11:52:33.072Z,57.72
2022-11-30T11:55:03.332Z,57.45
2022-11-30T11:57:47.924Z,56.38
2022-11-30T12:03:07.704Z,57.63
2022-11-30T12:05:42.813Z,56.42
2022-11-30T12:08:27.450Z,55.85
2022-11-30T12:11:16.312Z,53.38
2022-11-30T12:13:44.337Z,53.72
2022-11-30T12:16:42.684Z,54.75
2022-11-30T12:19:21.283Z,56.58
2022-11-30T12:22:03.333Z,52.33
2022-11-30T12:24:29.670Z,56.25
2022-11-30T12:27:02.978Z,51.88
2022-11-30T12:29:48.419Z,54.00
2022-11-30T12:32:50.283Z,51.67
2022-11-30T12:35:45.323Z,52.95
2022-11-30T12:38:38.468Z,50.85
2022-11-30T12:41:29.813Z,48.17
2022-11-30T12:44:04.644Z,47.20
2022-11-30T12:46:39.348Z,47.70
2022-11-30T12:49:21.395Z,44.53
2022-11-30T12:51:53.889Z,45.63
2022-11-30T12:54:41.596Z,45.60
2022-11-30T12:57:20.900Z,45.42
2022-11-30T13:00:05.836Z,43.40
2022-11-30T13:02:59.491Z,44.72
2022-11-30T13:05:53.968Z,44.05
2022-11-30T13:08:27.607Z,41.65
2022-11-30T13:11:04.514Z,41.90
2022-11-30T13:13:34.105Z,39.60
2022-11-30T13:16:07.878Z,40.30
2022-11-30T13:18:36.147Z,40.13
2022-11-30T13:21:11.674Z,38.95
2022-11-30T13:23:52.785Z,39.38
2022-11-30T13:26:42.980Z,38.38
2022-11-30T13:29:43.741Z,36.92
2022-11-30T13:32:55.211Z,39.63
2022-11-30T13:35:28.910Z,38.10
2022-11-30T13:38:40.272Z,38.05
2022-11-30T13:41:08.815Z,36.08
2022-11-30T13:43:47.939Z,36.85
2022-11-30T13:46:19.489Z,36.65
2022-11-30T13:48:46.752Z,36.33
2022-11-30T13:51:33.397Z,34.70
2022-11-30T13:54:38.803Z,36.47
2022-11-30T13:57:27.114Z,35.95
2022-11-30T13:59:58.567Z,34.58
2022-11-30T14:02:31.510Z,36.22
2022-11-30T14:05:16.463Z,33.58
2022-11-30T14:07:51.977Z,33.55
2022-11-30T14:10:35.196Z,32.35
2022-11-30T14:13:04.458Z,31.88
2022-11-30T14:15:40.720Z,31.95
2022-11-30T14:18:10.084Z,31.52
2022-11-30T14:20:48.828Z,32.25
2022-11-30T14:23:20.786Z,31.58
2022-11-30T14:25:51.803Z,31.30
2022-11-30T14:28:22.911Z,30.40
2022-11-30T14:30:49.397Z,29.58
2022-11-30T14:33:27.063Z,29.17
2022-11-30T14:35:57.993Z,28.75
2022-11-30T14:38:27.519Z,29.45
2022-11-30T14:40:54.692Z,29.75
2022-11-30T14:43:21.329Z,29.40
2022-11-30T14:46:08.149Z,30.13
2022-11-30T14:48:37.936Z,28.58
2022-11-30T14:51:04.528Z,28.25
2022-11-30T14:54:00.088Z,28.80
2022-11-30T14:56:36.846Z,28.20
2022-11-30T14:59:27.604Z,28.83
2022-11-30T15:01:59.862Z,27.10
2022-11-30T15:04:27.654Z,27.40
2022-11-30T15:06:55.849Z,27.17
2022-11-30T15:09:32.482Z,28.90
2022-11-30T15:11:59.873Z,27.50
2022-11-30T15:14:26.443Z,27.65
2022-11-30T15:16:59.648Z,27.20
2022-11-30T15:19:29.497Z,26.00
2022-11-30T15:21:56.895Z,26.80
2022-11-30T15:24:23.864Z,25.35
2022-11-30T15:27:04.341Z,27.25
2022-11-30T15:29:43.111Z,25.85
2022-11-30T15:32:17.685Z,27.10
2022-11-30T15:34:56.781Z,27.67
2022-11-30T15:37:37.895Z,27.63
2022-11-30T15:40:07.821Z,27.15
2022-11-30T15:42:43.817Z,26.20
2022-11-30T15:45:23.703Z,28.27
2022-11-30T15:47:51.609Z,26.98
2022-11-30T15:50:39.474Z,27.35
2022-11-30T15:53:54.197Z,26.55
2022-11-30T15:56:26.085Z,27.52
2022-11-30T15:59:14.088Z,26.17
2022-11-30T16:02:08.890Z,27.23
2022-11-30T16:07:20.277Z,27.92
2022-11-30T16:09:46.946Z,27.92
2022-11-30T16:12:28.351Z,27.98
2022-11-30T16:14:54.782Z,29.27
2022-11-30T16:17:21.574Z,28.27
2022-11-30T16:19:48.150Z,30.73
2022-11-30T16:22:15.955Z,28.05
2022-11-30T16:24:42.766Z,29.30
2022-11-30T16:27:20.060Z,28.67
2022-11-30T16:29:51.902Z,28.60
2022-11-30T16:32:19.467Z,28.15
2022-11-30T16:34:47.720Z,28.60
2022-11-30T16:37:14.722Z,27.88
2022-11-30T16:39:41.119Z,27.02
2022-11-30T16:42:11.827Z,27.58
2022-11-30T16:44:38.339Z,28.10
2022-11-30T16:47:04.673Z,26.80
2022-11-30T16:49:31.039Z,26.13
2022-11-30T16:51:57.386Z,27.80
2022-11-30T16:54:23.736Z,27.05
2022-11-30T16:56:50.063Z,29.08
2022-11-30T16:59:17.069Z,26.73
2022-11-30T17:01:47.266Z,26.80
2022-11-30T17:04:26.309Z,26.88
2022-11-30T17:06:58.793Z,26.40
2022-11-30T17:09:29.780Z,27.13
2022-11-30T17:11:56.334Z,28.10
2022-11-30T17:14:23.762Z,27.10
2022-11-30T17:16:50.518Z,26.52
2022-11-30T17:19:17.098Z,27.55
2022-11-30T17:21:44.509Z,27.63
2022-11-30T17:24:11.912Z,27.45
2022-11-30T17:26:38.344Z,27.77
2022-11-30T17:29:04.694Z,28.75
2022-11-30T17:31:31.263Z,27.30
2022-11-30T17:33:57.940Z,26.70
2022-11-30T17:36:24.422Z,27.50
2022-11-30T17:38:51.036Z,26.88
2022-11-30T17:41:19.915Z,28.63
2022-11-30T17:43:47.881Z,27.42
2022-11-30T17:46:17.243Z,30.55
2022-11-30T17:48:43.934Z,31.63
2022-11-30T17:51:12.758Z,30.08
2022-11-30T17:53:40.456Z,30.40
2022-11-30T17:56:09.232Z,30.85
2022-11-30T17:58:43.397Z,29.27
2022-11-30T18:01:23.173Z,30.95
2022-11-30T18:03:50.316Z,31.23
2022-11-30T18:06:17.452Z,33.20
2022-11-30T18:08:44.354Z,32.67
2022-11-30T18:11:13.538Z,34.00
2022-11-30T18:13:40.619Z,35.95
2022-11-30T18:16:15.468Z,35.67
2022-11-30T18:18:47.423Z,37.78
2022-11-30T18:21:18.037Z,34.85
2022-11-30T18:23:44.579Z,37.35
2022-11-30T18:26:17.311Z,39.88
2022-11-30T18:28:44.442Z,40.28
2022-11-30T18:31:11.059Z,40.53
2022-11-30T18:33:38.275Z,38.40
2022-11-30T18:36:09.014Z,39.45
2022-11-30T18:38:38.475Z,38.70
2022-11-30T18:41:05.945Z,40.00
2022-11-30T18:43:33.406Z,38.80
2022-11-30T18:46:08.460Z,39.95
2022-11-30T18:48:36.039Z,39.28
2022-11-30T18:51:28.089Z,40.33
2022-11-30T18:54:08.541Z,38.92
2022-11-30T18:56:37.189Z,40.80
2022-11-30T18:59:06.751Z,40.90
2022-11-30T19:01:33.586Z,42.53
2022-11-30T19:04:02.657Z,40.10
2022-11-30T19:06:29.947Z,41.33
2022-11-30T19:08:57.103Z,41.15
2022-11-30T19:11:24.158Z,41.08
2022-11-30T19:13:54.890Z,39.47
2022-11-30T19:16:21.618Z,41.25
2022-11-30T19:18:48.656Z,39.45
2022-11-30T19:21:17.534Z,39.22
2022-11-30T19:23:44.327Z,38.80
2022-11-30T19:26:11.189Z,40.75
2022-11-30T19:28:38.593Z,43.15
2022-11-30T19:31:10.985Z,40.63
2022-11-30T19:33:39.277Z,42.95
2022-11-30T19:36:08.395Z,39.97
2022-11-30T19:38:34.846Z,39.47
2022-11-30T19:41:06.145Z,42.60
2022-11-30T19:43:32.520Z,43.00
2022-11-30T19:46:11.518Z,43.00
2022-11-30T19:48:37.917Z,42.38
2022-11-30T19:51:06.776Z,43.30
2022-11-30T19:53:33.642Z,43.22
2022-11-30T19:56:04.633Z,41.72
2022-11-30T19:58:31.735Z,40.80
2022-11-30T20:01:05.715Z,41.22
2022-11-30T20:03:35.725Z,42.75
2022-11-30T20:06:02.895Z,41.17
2022-11-30T20:08:29.377Z,42.13
2022-11-30T20:10:55.747Z,39.97
2022-11-30T20:13:22.068Z,40.08
2022-11-30T20:15:48.664Z,41.97
2022-11-30T20:18:15.082Z,40.47
2022-11-30T20:20:41.420Z,41.63
2022-11-30T20:23:07.766Z,40.20
2022-11-30T20:25:34.371Z,39.78
2022-11-30T20:28:01.049Z,38.58
2022-11-30T20:30:28.127Z,38.92
2022-11-30T20:32:54.536Z,38.70
2022-11-30T20:35:21.042Z,37.72
2022-11-30T20:37:47.485Z,39.33
2022-11-30T20:40:13.915Z,40.22
2022-11-30T20:42:40.235Z,38.97
2022-11-30T20:45:07.009Z,41.05
2022-11-30T20:47:36.579Z,39.47
2022-11-30T20:50:04.761Z,35.83
2022-11-30T20:52:31.113Z,36.33
2022-11-30T20:54:57.480Z,35.28
2022-11-30T20:57:23.784Z,34.42
2022-11-30T20:59:50.346Z,34.13
2022-11-30T21:02:16.730Z,35.60
2022-11-30T21:04:43.273Z,33.97
2022-11-30T21:07:09.623Z,34.22
2022-11-30T21:09:35.956Z,33.38
2022-11-30T21:12:02.257Z,33.45
2022-11-30T21:14:28.788Z,35.30
2022-11-30T21:16:55.185Z,34.13
2022-11-30T21:19:21.696Z,35.22
2022-11-30T21:21:48.056Z,33.75
2022-11-30T21:24:14.410Z,34.05
2022-11-30T21:26:42.851Z,35.00
2022-11-30T21:29:15.298Z,35.08
2022-11-30T21:31:42.287Z,38.90
2022-11-30T21:34:08.977Z,37.42
2022-11-30T21:36:35.405Z,36.65
2022-11-30T21:39:06.131Z,37.47
2022-11-30T21:41:37.988Z,39.05
2022-11-30T21:44:05.748Z,39.08
2022-11-30T21:46:32.588Z,37.20
2022-11-30T21:48:58.984Z,38.75
2022-11-30T21:51:28.826Z,40.97
2022-11-30T21:53:57.796Z,40.55
2022-11-30T21:56:29.925Z,38.70
2022-11-30T21:58:57.383Z,37.53
2022-11-30T22:01:30.725Z,37.60
2022-11-30T22:03:58.918Z,39.47
2022-11-30T22:06:27.226Z,38.47
2022-11-30T22:08:56.229Z,37.42
2022-11-30T22:11:23.166Z,39.25
2022-11-30T22:13:51.686Z,35.00
2022-11-30T22:16:19.180Z,38.72
2022-11-30T22:18:46.110Z,39.60
2022-11-30T22:21:18.224Z,38.97
2022-11-30T22:23:46.738Z,41.63
2022-11-30T22:26:16.882Z,40.05
2022-11-30T22:28:45.661Z,41.10
2022-11-30T22:31:14.026Z,41.50
2022-11-30T22:33:42.640Z,41.08
2022-11-30T22:36:13.613Z,41.15
2022-11-30T22:38:40.362Z,41.38
2022-11-30T22:41:08.531Z,39.53
2022-11-30T22:43:35.427Z,39.20
2022-11-30T22:46:10.031Z,39.10
2022-11-30T22:48:37.363Z,39.70
2022-11-30T22:51:04.547Z,39.65
2022-11-30T22:53:31.038Z,38.58
2022-11-30T22:56:04.807Z,39.72
2022-11-30T22:58:31.342Z,38.53
2022-11-30T23:00:58.828Z,38.17
2022-11-30T23:03:28.371Z,35.70
2022-11-30T23:05:55.159Z,40.85
2022-11-30T23:08:21.599Z,38.80
2022-11-30T23:10:48.235Z,37.97
2022-11-30T23:13:14.591Z,39.08
2022-11-30T23:15:41.661Z,38.15
2022-11-30T23:18:08.136Z,39.30
2022-11-30T23:20:35.867Z,39.03
2022-11-30T23:23:02.199Z,40.58
2022-11-30T23:25:28.587Z,40.10
2022-11-30T23:27:55.053Z,38.45
2022-11-30T23:30:21.379Z,37.75
2022-11-30T23:32:47.867Z,39.63
2022-11-30T23:35:14.270Z,43.05
2022-11-30T23:37:40.688Z,40.03
2022-11-30T23:40:07.854Z,41.03
2022-11-30T23:42:34.245Z,39.28
2022-11-30T23:45:01.025Z,40.40
2022-11-30T23:47:27.588Z,43.40
2022-11-30T23:49:53.926Z,40.40
2022-11-30T23:52:20.306Z,42.33
2022-11-30T23:54:46.754Z,45.35
2022-11-30T23:57:13.276Z,44.97
2022-11-30T23:59:39.578Z,40.90
